Youngsville, New York
Current Conditions -  °F | °C
As of 3:55 AM on Monday 20 Oct 2014 (Local Time) from KMSV Reporting Station
Clear Clear  
Wind Chill: 24°   Ceiling: Unl
Heat Index: 30°   Visibility: 10mi
Dew Point: 27°   Wind: 6mph
Humidity: 86%   Direction: 280°W
Pressure: 30.03"   Gusts: NA
Location:  41.81°N, 74.89°W
Report Text: KMSV 200755Z AUTO 28005KT 10SM CLR M01/M03 A3003 RMK AO1
Loading
Personal Weather Stations






























Interactive Weather Map
Tropical Storm Tracking
New forecast layout! Learn more

10-Day Weather Forecast

Advertisements
Track Severe Weather on mobile